Time;durP1;ratioP1;P1;durP2;ratioP2;P2;SDS_P1;SDS_P2;PMS_P1;PMS_P2;Temp;Humidity;BMP_temperature;BMP_pressure;BME280_temperature;BME280_humidity;BME280_pressure;Samples;Min_cycle;Max_cycle;Signal;HPM_P1;HPM_P2
2023/09/15 00:08:16;;;;;;;4.47;2.90;;;15.20;94.00;;;;;;20834139;28;20209;-64
2023/09/15 00:18:18;;;;;;;5.60;2.77;;;15.10;94.10;;;;;;20834037;28;20258;-66
2023/09/15 00:28:20;;;;;;;4.47;2.60;;;15.00;94.40;;;;;;20832722;28;20212;-64
2023/09/15 00:38:22;;;;;;;2.93;2.30;;;15.00;94.60;;;;;;20832123;28;20236;-64
2023/09/15 00:48:24;;;;;;;4.50;2.50;;;14.80;94.90;;;;;;20831601;28;20263;-66
2023/09/15 00:58:26;;;;;;;4.73;2.67;;;14.80;95.00;;;;;;20846049;28;20610;-67
2023/09/15 01:08:28;;;;;;;4.43;2.43;;;14.70;95.10;;;;;;20830245;28;20209;-70
2023/09/15 01:18:48;;;;;;;4.10;2.43;;;14.70;95.40;;;;;;20829509;28;20334;-65
2023/09/15 01:29:13;;;;;;;5.30;2.43;;;14.60;95.50;;;;;;20829597;28;20719;-65
2023/09/15 01:39:15;;;;;;;3.00;2.47;;;14.60;95.60;;;;;;20829241;28;20232;-66
2023/09/15 01:49:21;;;;;;;3.60;2.80;;;14.70;95.70;;;;;;20828917;28;20717;-66
2023/09/15 01:59:23;;;;;;;4.63;2.80;;;14.50;95.90;;;;;;20828398;28;20251;-70
2023/09/15 02:09:24;;;;;;;6.90;3.10;;;14.50;96.10;;;;;;20831897;28;20660;-70
2023/09/15 02:19:26;;;;;;;4.43;2.73;;;14.50;96.20;;;;;;20872814;28;20780;-70
2023/09/15 02:29:29;;;;;;;5.53;2.90;;;14.40;96.40;;;;;;20916529;28;20214;-65
2023/09/15 02:39:31;;;;;;;5.67;3.10;;;14.30;96.50;;;;;;20923726;28;20333;-65
2023/09/15 02:49:33;;;;;;;4.60;2.80;;;14.10;96.60;;;;;;20920601;28;20232;-65
2023/09/15 02:59:35;;;;;;;8.17;3.00;;;14.00;96.70;;;;;;20871165;28;20279;-65
2023/09/15 03:09:36;;;;;;;3.73;2.90;;;13.90;96.70;;;;;;20839358;28;20247;-65
2023/09/15 03:19:38;;;;;;;5.27;3.10;;;13.90;96.70;;;;;;20855774;28;20232;-65
2023/09/15 03:29:40;;;;;;;6.50;3.50;;;13.80;97.00;;;;;;20854383;28;20557;-65
2023/09/15 03:39:42;;;;;;;5.90;3.53;;;13.80;96.80;;;;;;20847625;28;20326;-66
2023/09/15 03:49:44;;;;;;;6.83;3.60;;;13.70;97.00;;;;;;20848339;28;20788;-65
2023/09/15 03:59:46;;;;;;;6.07;3.60;;;13.70;97.20;;;;;;20834974;28;20268;-65
2023/09/15 04:09:47;;;;;;;6.27;4.07;;;13.80;97.40;;;;;;20834433;28;20679;-66
2023/09/15 04:19:49;;;;;;;8.20;4.10;;;13.80;97.50;;;;;;20833824;28;20617;-65
2023/09/15 04:29:54;;;;;;;8.03;4.23;;;13.80;97.50;;;;;;20832678;28;20240;-65
2023/09/15 04:39:55;;;;;;;11.03;4.73;;;13.70;97.60;;;;;;20840480;28;20681;-65
2023/09/15 04:49:58;;;;;;;6.70;4.60;;;13.60;97.80;;;;;;20857526;28;20229;-63
2023/09/15 05:00:01;;;;;;;11.97;5.10;;;13.60;97.80;;;;;;20842932;28;20644;-64
2023/09/15 05:10:03;;;;;;;28.30;6.37;;;13.60;97.80;;;;;;20838357;28;20259;-64
2023/09/15 05:20:05;;;;;;;9.50;4.87;;;13.50;98.00;;;;;;20860577;28;20334;-69
2023/09/15 05:30:08;;;;;;;14.97;4.97;;;13.60;97.90;;;;;;20911020;28;20209;-66
2023/09/15 05:40:12;;;;;;;8.40;5.20;;;13.60;97.80;;;;;;20878514;28;20702;-64
2023/09/15 05:50:13;;;;;;;34.50;8.87;;;13.70;97.80;;;;;;20828372;28;20704;-70
2023/09/15 06:00:15;;;;;;;53.07;11.47;;;13.70;97.90;;;;;;20841863;28;20320;-64
2023/09/15 06:10:17;;;;;;;11.87;6.10;;;13.90;98.00;;;;;;20847012;28;20211;-64
2023/09/15 06:20:19;;;;;;;18.83;6.30;;;14.10;98.00;;;;;;20849431;28;20302;-65
2023/09/15 06:30:21;;;;;;;21.60;7.90;;;14.30;98.10;;;;;;20841579;28;20212;-64
2023/09/15 06:40:22;;;;;;;19.57;7.97;;;14.40;98.20;;;;;;20840813;28;20323;-64
2023/09/15 06:50:25;;;;;;;18.10;8.30;;;14.70;98.20;;;;;;20840075;28;20235;-65
2023/09/15 07:00:26;;;;;;;13.03;8.60;;;14.90;98.30;;;;;;20850765;28;20235;-65
2023/09/15 07:10:28;;;;;;;13.43;7.87;;;15.00;98.40;;;;;;20850044;28;20293;-64
2023/09/15 07:20:30;;;;;;;11.83;8.17;;;15.40;98.30;;;;;;20849442;28;20621;-67
2023/09/15 07:30:32;;;;;;;20.57;9.60;;;15.80;98.10;;;;;;20837618;28;20287;-64
2023/09/15 07:40:34;;;;;;;25.60;14.47;;;16.10;97.90;;;;;;20836321;28;20323;-64
2023/09/15 07:50:36;;;;;;;21.57;12.83;;;16.30;97.60;;;;;;20846916;28;20236;-64
2023/09/15 08:00:37;;;;;;;33.77;17.13;;;16.60;97.50;;;;;;20835279;28;20264;-63
2023/09/15 08:10:39;;;;;;;15.70;10.60;;;16.90;97.20;;;;;;20845716;28;20210;-65
2023/09/15 08:20:41;;;;;;;14.37;8.67;;;17.20;97.00;;;;;;20844633;28;20310;-64
2023/09/15 08:30:46;;;;;;;9.40;7.30;;;17.50;96.70;;;;;;20832173;28;20699;-66
2023/09/15 08:41:04;;;;;;;31.37;15.83;;;17.80;96.30;;;;;;20831109;28;20246;-65
2023/09/15 08:51:06;;;;;;;8.57;6.40;;;18.20;95.90;;;;;;20830949;28;20752;-64
2023/09/15 09:01:09;;;;;;;7.67;5.70;;;18.50;95.70;;;;;;20850212;28;20236;-64
2023/09/15 09:11:12;;;;;;;8.23;5.63;;;18.80;95.30;;;;;;20831678;28;20211;-64
2023/09/15 09:21:15;;;;;;;8.90;6.10;;;19.10;95.00;;;;;;20839208;28;20725;-68
2023/09/15 09:31:17;;;;;;;6.60;5.30;;;19.40;94.70;;;;;;20828948;28;20249;-65
2023/09/15 09:41:21;;;;;;;7.87;5.43;;;19.60;94.50;;;;;;20841115;28;20236;-75
2023/09/15 09:51:23;;;;;;;6.80;5.20;;;19.90;94.30;;;;;;20844866;28;20715;-72
2023/09/15 10:01:27;;;;;;;7.07;4.67;;;20.30;94.30;;;;;;20856147;28;20561;-75
2023/09/15 10:11:29;;;;;;;6.17;4.67;;;20.60;94.00;;;;;;20863022;28;20204;-73
2023/09/15 10:21:34;;;;;;;7.77;4.80;;;20.90;93.50;;;;;;20842485;28;20576;-73
2023/09/15 10:31:36;;;;;;;5.07;4.40;;;21.20;93.10;;;;;;20842375;28;20652;-73
2023/09/15 10:41:37;;;;;;;8.93;4.60;;;21.40;92.60;;;;;;20840951;28;20239;-73
2023/09/15 10:52:00;;;;;;;9.47;4.80;;;21.60;92.10;;;;;;20850640;28;20320;-82
2023/09/15 11:02:02;;;;;;;5.17;4.67;;;;;;;;;;20843124;28;20664;-81
2023/09/15 11:12:04;;;;;;;14.07;4.80;;;;;;;;;;20848622;28;20716;-76
2023/09/15 11:22:07;;;;;;;5.63;4.30;;;21.80;91.60;;;;;;20855281;28;20282;-78
2023/09/15 11:32:09;;;;;;;5.13;4.20;;;22.30;90.30;;;;;;20839316;28;20292;-78
2023/09/15 11:42:10;;;;;;;7.13;4.57;;;22.50;90.10;;;;;;20836180;28;20323;-77
2023/09/15 11:52:13;;;;;;;7.37;4.60;;;22.80;89.30;;;;;;20878809;28;20236;-77
2023/09/15 12:02:19;;;;;;;8.37;5.93;;;23.10;88.50;;;;;;20858959;28;20268;-79
2023/09/15 12:12:23;;;;;;;8.37;4.47;;;;;;;;;;20887270;28;20545;-71
2023/09/15 12:22:32;;;;;;;7.50;6.50;;;;;;;;;;20840444;28;20240;-74
2023/09/15 12:32:35;;;;;;;7.27;4.40;;;;;;;;;;20912039;28;20283;-71
2023/09/15 12:42:38;;;;;;;4.67;3.90;;;;;;;;;;20913727;28;20289;-74
2023/09/15 12:52:40;;;;;;;6.17;4.03;;;;;;;;;;20905971;28;20236;-74
2023/09/15 13:02:42;;;;;;;5.23;4.07;;;;;;;;;;20846171;28;20695;-74
2023/09/15 13:12:45;;;;;;;10.20;4.00;;;;;;;;;;20840436;28;20215;-74
2023/09/15 13:22:47;;;;;;;8.33;3.37;;;;;;;;;;20828765;28;20569;-76
2023/09/15 13:32:49;;;;;;;4.17;3.53;;;;;;;;;;20829597;28;20656;-74
2023/09/15 13:42:52;;;;;;;5.60;3.63;;;;;;;;;;20829365;28;20746;-75
2023/09/15 13:52:55;;;;;;;4.73;3.53;;;;;;;;;;20840221;28;20264;-74
2023/09/15 14:02:57;;;;;;;7.53;3.57;;;;;;;;;;20836355;28;20242;-72
2023/09/15 14:13:00;;;;;;;6.23;3.30;;;;;;;;;;20898558;28;20212;-72
2023/09/15 14:23:02;;;;;;;7.43;3.07;;;;;;;;;;20914703;28;20322;-75
2023/09/15 14:33:05;;;;;;;6.37;3.00;;;;;;;;;;20925157;28;20305;-75
2023/09/15 14:43:07;;;;;;;7.07;3.65;;;;;;;;;;20923530;28;20239;-72
2023/09/15 14:53:09;;;;;;;5.45;2.80;;;;;;;;;;20870400;28;20236;-74
2023/09/15 15:03:11;;;;;;;3.45;2.67;;;;;;;;;;20850434;28;20240;-75
2023/09/15 15:13:13;;;;;;;3.03;2.72;;;;;;;;;;20870552;28;20615;-71
2023/09/15 15:23:15;;;;;;;3.97;2.60;;;;;;;;;;20912661;28;20811;-73
2023/09/15 15:33:19;;;;;;;3.28;2.88;;;;;;;;;;20919330;28;20291;-69
2023/09/15 15:43:21;;;;;;;3.67;2.90;;;;;;;;;;20902414;28;20244;-69
2023/09/15 15:53:23;;;;;;;6.25;2.92;;;;;;;;;;20834250;28;20233;-69
2023/09/15 16:03:25;;;;;;;3.37;2.70;;;;;;;;;;20847031;28;20240;-69
2023/09/15 16:13:28;;;;;;;3.37;2.90;;;;;;;;;;20834296;28;20263;-69
2023/09/15 16:23:30;;;;;;;3.73;3.40;;;;;;;;;;20833593;28;20243;-69
2023/09/15 16:33:32;;;;;;;4.13;3.00;;;;;;;;;;20833357;28;20714;-70
2023/09/15 16:43:35;;;;;;;6.37;3.10;;;23.40;87.00;;;;;;20831555;28;20241;-69
2023/09/15 16:53:37;;;;;;;5.67;2.80;;;24.70;62.60;;;;;;20851533;28;20323;-70
2023/09/15 17:03:39;;;;;;;3.83;2.77;;;24.40;63.00;;;;;;20831106;28;20246;-70
2023/09/15 17:13:41;;;;;;;3.73;2.97;;;24.20;63.40;;;;;;20830635;28;20205;-70
2023/09/15 17:23:42;;;;;;;3.83;3.00;;;24.00;64.00;;;;;;20830246;28;20323;-69
2023/09/15 17:33:44;;;;;;;7.97;4.00;;;23.80;64.50;;;;;;20832426;28;20205;-69
2023/09/15 17:43:49;;;;;;;8.97;3.80;;;23.60;65.20;;;;;;20837877;28;20596;-69
2023/09/15 17:53:51;;;;;;;6.10;3.10;;;23.40;66.10;;;;;;20828565;28;20244;-69
2023/09/15 18:03:53;;;;;;;4.73;4.03;;;23.20;67.10;;;;;;20854519;28;20264;-69
2023/09/15 18:13:57;;;;;;;8.20;5.77;;;23.00;68.20;;;;;;20844006;28;20610;-69
2023/09/15 18:23:58;;;;;;;7.00;3.83;;;22.80;69.20;;;;;;20842136;28;20290;-66
2023/09/15 18:34:00;;;;;;;6.87;3.53;;;22.60;70.20;;;;;;20853355;28;20232;-67
2023/09/15 18:44:03;;;;;;;13.43;6.23;;;22.40;71.20;;;;;;20887740;28;20246;-70
2023/09/15 18:54:05;;;;;;;8.47;4.80;;;22.20;72.20;;;;;;20878102;28;20231;-69
2023/09/15 19:04:06;;;;;;;11.20;5.77;;;22.00;73.30;;;;;;20882333;28;20324;-70
2023/09/15 19:14:08;;;;;;;10.47;5.70;;;21.80;74.50;;;;;;20871021;28;20247;-68
2023/09/15 19:24:10;;;;;;;10.27;5.27;;;21.60;75.20;;;;;;20874237;28;20236;-69
2023/09/15 19:34:12;;;;;;;9.67;5.50;;;21.50;76.10;;;;;;20880383;28;20205;-70
2023/09/15 19:44:14;;;;;;;7.37;4.60;;;21.40;76.80;;;;;;20881286;28;20231;-69
2023/09/15 19:54:16;;;;;;;4.17;3.57;;;21.20;77.70;;;;;;20878841;28;20237;-69
2023/09/15 20:04:18;;;;;;;8.27;3.90;;;21.00;78.40;;;;;;20873223;28;20316;-70
2023/09/15 20:14:20;;;;;;;7.17;3.97;;;20.80;79.50;;;;;;20868538;28;20214;-70
2023/09/15 20:24:22;;;;;;;5.77;4.27;;;20.60;80.60;;;;;;20864496;28;20271;-69
2023/09/15 20:34:24;;;;;;;7.80;4.20;;;20.50;81.50;;;;;;20832434;28;20270;-73
2023/09/15 20:44:26;;;;;;;5.80;3.93;;;20.40;82.40;;;;;;20832941;28;20382;-73
2023/09/15 20:54:29;;;;;;;8.03;4.10;;;20.30;82.60;;;;;;20832201;28;20729;-72
2023/09/15 21:04:31;;;;;;;5.77;3.80;;;20.20;83.60;;;;;;20830712;28;20294;-73
2023/09/15 21:14:35;;;;;;;7.70;3.87;;;19.90;84.50;;;;;;20829952;28;20220;-73
2023/09/15 21:24:36;;;;;;;6.37;3.97;;;19.90;85.00;;;;;;20828758;28;20251;-69
2023/09/15 21:34:38;;;;;;;4.57;3.90;;;19.80;86.40;;;;;;20836047;28;20234;-69
2023/09/15 21:44:40;;;;;;;7.27;3.93;;;19.70;88.20;;;;;;20856092;28;20326;-69
2023/09/15 21:54:42;;;;;;;12.47;4.40;;;19.60;89.80;;;;;;20841237;28;20638;-69
2023/09/15 22:04:43;;;;;;;8.30;4.50;;;19.50;90.30;;;;;;20839101;28;20232;-68
2023/09/15 22:14:45;;;;;;;6.63;3.53;;;19.30;91.10;;;;;;20843256;28;20350;-68
2023/09/15 22:24:47;;;;;;;4.00;3.20;;;19.10;91.40;;;;;;20843024;28;20698;-68
2023/09/15 22:34:49;;;;;;;3.43;3.13;;;18.90;91.40;;;;;;20842543;28;20227;-68
2023/09/15 22:44:52;;;;;;;7.10;3.23;;;18.70;91.40;;;;;;20841854;28;20691;-68
2023/09/15 22:54:54;;;;;;;6.17;3.50;;;18.60;91.40;;;;;;20839420;28;20327;-68
2023/09/15 23:04:58;;;;;;;6.97;3.27;;;;;;;;;;20840037;28;20571;-66
2023/09/15 23:15:01;;;;;;;5.07;4.30;;;18.30;91.70;;;;;;20839556;28;20292;-68
2023/09/15 23:25:04;;;;;;;3.80;3.40;;;18.30;92.20;;;;;;20838461;28;20248;-67
2023/09/15 23:35:07;;;;;;;5.03;3.63;;;18.20;92.60;;;;;;20837577;28;20205;-68
2023/09/15 23:45:09;;;;;;;6.70;3.70;;;18.20;92.90;;;;;;20837250;28;20683;-68
2023/09/15 23:55:11;;;;;;;10.37;4.60;;;18.10;93.10;;;;;;20874142;28;20325;-68
